Time;durP1;ratioP1;P1;durP2;ratioP2;P2;SDS_P1;SDS_P2;PMS_P1;PMS_P2;Temp;Humidity;BMP_temperature;BMP_pressure;BME280_temperature;BME280_humidity;BME280_pressure;Samples;Min_cycle;Max_cycle;Signal;HPM_P1;HPM_P2
2022/01/19 00:01:34;;;;;;;15.75;2.47;;;;;;;22.53;54.54;101127.66;7314464;19;130493;-33
2022/01/19 00:03:59;;;;;;;20.83;3.13;;;;;;;22.54;54.71;101116.25;7311323;19;129230;-35
2022/01/19 00:06:25;;;;;;;13.77;2.17;;;;;;;22.50;54.54;101110.34;7313269;19;129640;-36
2022/01/19 00:08:51;;;;;;;14.68;2.40;;;;;;;22.51;54.69;101103.34;7312211;19;129253;-41
2022/01/19 00:11:17;;;;;;;17.90;2.30;;;;;;;22.44;54.29;101100.31;7313148;19;129380;-37
2022/01/19 00:13:42;;;;;;;8.65;1.77;;;;;;;22.37;54.96;101101.69;7309146;19;129860;-40
2022/01/19 00:16:08;;;;;;;18.27;2.88;;;;;;;22.32;55.02;101092.47;7312308;19;128996;-35
2022/01/19 00:18:33;;;;;;;17.58;2.83;;;;;;;22.24;55.40;101089.56;7310362;19;129387;-36
2022/01/19 00:20:59;;;;;;;7.72;1.38;;;;;;;22.16;55.99;101086.63;7310096;19;129568;-37
2022/01/19 00:23:24;;;;;;;23.10;3.35;;;;;;;22.13;56.10;101079.00;7309323;19;153855;-39
2022/01/19 00:25:52;;;;;;;9.57;1.48;;;;;;;22.06;56.05;101077.75;7312797;19;129017;-39
2022/01/19 00:28:17;;;;;;;17.90;2.78;;;;;;;21.92;56.38;101042.88;7310522;19;132375;-34
2022/01/19 00:30:43;;;;;;;8.13;1.70;;;;;;;21.98;56.26;101056.50;7311696;19;138111;-38
2022/01/19 00:33:09;;;;;;;13.93;2.27;;;;;;;21.89;56.32;101058.81;7310661;19;129093;-44
2022/01/19 00:35:35;;;;;;;19.10;3.03;;;;;;;21.86;56.42;101053.78;7309444;19;154144;-35
2022/01/19 00:38:01;;;;;;;15.68;2.28;;;;;;;21.80;56.89;101064.66;7312311;19;130164;-35
2022/01/19 00:40:26;;;;;;;13.00;1.95;;;;;;;21.77;56.86;101054.41;7310407;19;131239;-41
2022/01/19 00:42:52;;;;;;;14.23;2.30;;;;;;;21.77;58.12;101054.41;7308851;19;155986;-42
2022/01/19 00:45:17;;;;;;;4.95;1.02;;;;;;;21.77;57.10;101059.66;7310993;19;129435;-42
2022/01/19 00:47:43;;;;;;;14.32;2.42;;;;;;;21.78;58.45;101066.53;7310170;19;157221;-39
2022/01/19 00:50:12;;;;;;;12.20;1.90;;;;;;;21.81;58.33;101066.34;7314099;19;130418;-41
2022/01/19 00:52:38;;;;;;;20.00;3.15;;;;;;;21.77;58.66;101062.25;7310056;19;129787;-42
2022/01/19 00:55:06;;;;;;;12.88;2.17;;;;;;;21.77;58.58;101049.16;7312633;19;130259;-43
2022/01/19 00:57:31;;;;;;;15.35;2.60;;;;;;;21.86;58.63;101055.56;7312619;19;132777;-42
2022/01/19 00:59:56;;;;;;;12.70;2.25;;;;;;;21.87;59.13;101068.53;7309049;19;152180;-42
2022/01/19 01:02:21;;;;;;;11.35;1.77;;;;;;;21.87;59.65;101063.31;7309958;19;155376;-41
2022/01/19 01:04:47;;;;;;;13.73;2.13;;;;;;;21.95;58.53;101061.00;7309350;19;153879;-42
2022/01/19 01:07:12;;;;;;;19.23;3.00;;;;;;;21.94;58.85;101063.72;7309164;19;158347;-38
2022/01/19 01:09:37;;;;;;;13.10;2.13;;;;;;;21.96;58.44;101060.03;7312412;19;154144;-42
2022/01/19 01:12:12;;;;;;;16.63;2.72;;;;;;;21.96;58.72;101053.97;7312906;19;129787;-40
2022/01/19 01:20:09;;;;;;;13.10;2.42;;;;;;;21.98;57.93;101030.31;7313520;19;129194;-41
2022/01/19 01:22:36;;;;;;;17.10;2.67;;;;;;;21.94;58.81;101024.44;7313889;19;129172;-37
2022/01/19 01:25:02;;;;;;;14.00;2.30;;;;;;;21.93;57.38;101002.66;7314792;19;128878;-41
2022/01/19 01:27:27;;;;;;;17.90;2.78;;;;;;;21.96;57.84;101002.44;7313515;19;131644;-40
2022/01/19 01:29:53;;;;;;;10.93;1.80;;;;;;;21.86;59.63;101004.03;7311166;19;158593;-40
2022/01/19 01:32:18;;;;;;;9.98;1.67;;;;;;;21.72;58.98;101004.13;7311383;19;154876;-42
2022/01/19 01:34:43;;;;;;;14.35;2.38;;;;;;;21.69;58.06;101003.50;7310883;19;154896;-42
2022/01/19 01:37:09;;;;;;;22.67;3.63;;;;;;;21.65;57.90;101002.84;7310051;19;130036;-41
2022/01/19 01:39:35;;;;;;;26.08;3.72;;;;;;;21.74;57.67;101006.63;7308507;19;140968;-42
2022/01/19 01:42:00;;;;;;;16.83;2.55;;;;;;;21.81;56.93;100993.06;7311255;19;129096;-40
2022/01/19 01:44:25;;;;;;;15.80;2.60;;;;;;;21.92;56.17;100984.44;7312626;19;129004;-38
2022/01/19 01:46:56;;;;;;;19.37;3.27;;;;;;;21.98;55.92;100978.78;7311723;19;129155;-40
2022/01/19 01:49:39;;;;;;;17.35;2.20;;;;;;;22.15;56.09;100972.34;7312866;19;131595;-42
2022/01/19 01:54:48;;;;;;;14.57;2.35;;;;;;;22.42;55.36;100967.72;7312145;19;128905;-41
2022/01/19 01:57:14;;;;;;;15.65;2.25;;;;;;;22.48;54.62;100962.00;7315876;19;129125;-41
2022/01/19 01:59:39;;;;;;;12.63;1.98;;;;;;;22.45;55.12;100968.31;7317448;19;159189;-39
2022/01/19 02:02:04;;;;;;;7.07;1.55;;;;;;;22.48;54.47;100968.09;7316472;19;154612;-34
2022/01/19 02:04:33;;;;;;;16.85;2.45;;;;;;;22.43;55.14;100974.66;7314475;19;154262;-40
2022/01/19 02:07:28;;;;;;;19.23;3.22;;;;;;;22.39;54.98;100962.69;7316882;19;130276;-40
2022/01/19 02:09:51;;;;;;;11.27;1.95;;;;;;;22.39;55.39;100970.56;7316665;19;130483;-37
2022/01/19 02:25:46;;;;;;;13.52;1.98;;;;;;;21.98;56.61;100930.78;7316981;19;129388;-42
2022/01/19 02:41:37;;;;;;;15.82;2.55;;;;;;;21.72;58.15;100899.41;7316753;19;129054;-42
2022/01/19 02:44:03;;;;;;;8.23;1.70;;;;;;;21.70;58.69;100896.06;7313784;19;129243;-42
2022/01/19 02:46:52;;;;;;;11.57;1.83;;;;;;;21.70;59.31;100890.00;7315242;19;129220;-42
2022/01/19 02:49:19;;;;;;;17.90;2.55;;;;;;;21.73;59.55;100887.97;7316452;19;130468;-42
2022/01/19 02:51:45;;;;;;;;;;;;;;;21.74;59.65;100881.81;7316355;19;130825;-40
2022/01/19 02:54:12;;;;;;;26.10;3.95;;;;;;;21.78;59.25;100872.81;7312881;19;129355;-41
2022/01/19 02:56:39;;;;;;;20.85;3.00;;;;;;;21.80;58.94;100864.84;7315538;19;129610;-42
2022/01/19 02:59:16;;;;;;;15.60;2.47;;;;;;;21.73;59.42;100864.44;7316352;19;130202;-36
2022/01/19 03:09:41;;;;;;;12.57;2.05;;;;;;;21.65;57.45;100851.06;7314713;19;130567;-38
2022/01/19 03:12:07;;;;;;;20.85;3.00;;;;;;;21.77;57.29;100846.75;7315557;19;130858;-35
2022/01/19 03:14:33;;;;;;;15.67;2.73;;;;;;;21.84;56.63;100856.69;7314364;19;129287;-37
2022/01/19 03:16:58;;;;;;;15.68;2.28;;;;;;;21.94;56.97;100841.16;7313621;19;154949;-41
2022/01/19 03:19:26;;;;;;;15.82;2.28;;;;;;;22.09;56.16;100839.19;7313371;19;158702;-39
2022/01/19 03:21:51;;;;;;;11.23;1.65;;;;;;;22.21;55.30;100835.66;7314784;19;129357;-34
2022/01/19 03:24:16;;;;;;;19.15;3.10;;;;;;;22.34;54.97;100824.16;7312897;19;156122;-38
2022/01/19 03:26:41;;;;;;;22.50;3.58;;;;;;;22.37;54.78;100817.84;7313512;19;153237;-38
2022/01/19 03:29:07;;;;;;;11.82;2.13;;;;;;;22.51;55.15;100817.66;7313832;19;159074;-37
2022/01/19 03:31:32;;;;;;;25.73;3.50;;;;;;;22.47;54.96;100808.34;7314020;19;129161;-42
2022/01/19 03:33:58;;;;;;;11.80;1.95;;;;;;;22.48;55.11;100807.38;7311683;19;130001;-42
2022/01/19 03:36:23;;;;;;;14.65;2.08;;;;;;;22.42;55.10;100794.75;7313792;19;129246;-40
2022/01/19 03:38:48;;;;;;;13.25;2.05;;;;;;;22.31;55.22;100782.50;7311865;19;158345;-44
2022/01/19 03:41:13;;;;;;;11.85;2.17;;;;;;;22.38;55.22;100786.28;7311794;19;130770;-44
2022/01/19 03:43:39;;;;;;;20.83;3.40;;;;;;;22.30;54.96;100769.47;7311518;19;141464;-42
2022/01/19 03:46:12;;;;;;;16.50;2.88;;;;;;;22.25;55.46;100777.69;7312692;19;139487;-43
2022/01/19 03:48:43;;;;;;;19.15;2.97;;;;;;;22.18;55.54;100770.41;7314012;19;130247;-43
2022/01/19 03:51:09;;;;;;;12.88;2.10;;;;;;;22.11;56.42;100769.19;7312656;19;130964;-43
2022/01/19 03:53:35;;;;;;;18.30;2.92;;;;;;;22.12;56.43;100763.00;7312281;19;129946;-41
2022/01/19 03:56:01;;;;;;;6.53;1.20;;;;;;;22.14;56.18;100758.47;7313423;19;129680;-36
2022/01/19 03:58:26;;;;;;;18.95;2.67;;;;;;;22.16;56.26;100743.50;7313629;19;130254;-38
2022/01/19 04:00:56;;;;;;;17.75;2.53;;;;;;;22.32;55.13;100751.84;7311372;19;130586;-44
2022/01/19 04:03:32;;;;;;;10.98;1.55;;;;;;;22.54;54.49;100741.44;7312600;19;129196;-39
2022/01/19 04:06:04;;;;;;;10.38;1.73;;;;;;;22.68;54.19;100728.09;7314752;19;129349;-46
2022/01/19 04:08:29;;;;;;;12.77;1.98;;;;;;;23.05;52.93;100729.53;7312747;19;130728;-38
2022/01/19 04:10:55;;;;;;;13.70;2.35;;;;;;;23.31;52.27;100720.44;7311668;19;158543;-38
2022/01/19 04:13:43;;;;;;;15.68;2.28;;;;;;;23.42;52.21;100717.75;7309993;19;154786;-40
2022/01/19 04:16:08;;;;;;;12.10;1.83;;;;;;;23.56;52.08;100712.25;7313042;19;129420;-40
2022/01/19 04:18:33;;;;;;;19.30;2.80;;;;;;;23.65;51.72;100706.22;7310086;19;158182;-40
2022/01/19 04:21:01;;;;;;;10.87;1.77;;;;;;;23.70;51.70;100704.03;7307293;19;158640;-35
2022/01/19 04:23:26;;;;;;;12.00;1.98;;;;;;;23.83;51.22;100703.88;7311974;19;129091;-33
2022/01/19 04:25:52;;;;;;;17.90;2.50;;;;;;;23.81;51.96;100690.88;7309414;19;153076;-36
2022/01/19 04:28:17;;;;;;;5.90;1.05;;;;;;;23.86;51.30;100690.50;7309828;19;159126;-33
2022/01/19 04:30:42;;;;;;;9.07;1.58;;;;;;;23.88;50.91;100685.94;7309652;19;158768;-43
2022/01/19 04:33:11;;;;;;;17.70;2.67;;;;;;;23.83;51.38;100682.88;7311112;19;128777;-34
2022/01/19 04:35:45;;;;;;;15.15;2.35;;;;;;;23.79;51.03;100678.81;7312232;19;129421;-40
2022/01/19 05:05:21;;;;;;;21.42;2.95;;;;;;;23.53;52.14;100654.75;7311748;19;130263;-35
2022/01/19 05:15:40;;;;;;;23.88;3.28;;;;;;;23.20;52.88;100625.97;7311196;19;129283;-41
2022/01/19 05:18:06;;;;;;;23.35;3.42;;;;;;;23.19;52.76;100635.63;7310672;19;152997;-41
2022/01/19 05:20:31;;;;;;;9.97;1.63;;;;;;;23.13;53.52;100641.38;7313697;19;130193;-40
2022/01/19 05:22:57;;;;;;;11.57;1.70;;;;;;;23.02;53.32;100632.72;7313726;19;130830;-41
2022/01/19 05:25:22;;;;;;;12.32;1.98;;;;;;;22.93;54.50;100623.81;7311193;19;130157;-41
2022/01/19 05:27:47;;;;;;;21.63;2.92;;;;;;;22.87;54.17;100621.66;7309981;19;154398;-39
2022/01/19 05:30:14;;;;;;;14.48;2.33;;;;;;;22.77;54.59;100614.66;7308882;19;159028;-37
2022/01/19 05:32:40;;;;;;;16.50;2.72;;;;;;;22.75;54.22;100620.03;7308581;19;131550;-36
2022/01/19 05:35:05;;;;;;;19.45;2.63;;;;;;;22.72;53.97;100608.94;7311771;19;130374;-41
2022/01/19 05:37:36;;;;;;;14.40;2.23;;;;;;;22.56;55.01;100593.59;7313149;19;129082;-41
2022/01/19 05:40:03;;;;;;;13.35;1.90;;;;;;;22.61;54.71;100606.34;7313000;19;130386;-41
2022/01/19 05:42:28;;;;;;;13.95;2.17;;;;;;;22.57;55.36;100599.69;7311374;19;131906;-38
2022/01/19 05:44:54;;;;;;;10.65;1.75;;;;;;;22.53;54.73;100587.75;7312033;19;154913;-39
2022/01/19 05:47:19;;;;;;;15.63;2.63;;;;;;;22.48;55.34;100582.00;7311353;19;154234;-41
2022/01/19 05:49:44;;;;;;;16.95;2.25;;;;;;;22.43;55.14;100576.34;7314283;19;129861;-42
2022/01/19 05:52:10;;;;;;;18.52;3.08;;;;;;;22.45;55.86;100583.09;7311221;19;130317;-41
2022/01/19 05:54:35;;;;;;;9.67;1.83;;;;;;;22.46;54.99;100583.94;7310943;19;129630;-42
2022/01/19 05:57:01;;;;;;;5.38;1.33;;;;;;;22.43;55.68;100576.34;7311428;19;155269;-40
2022/01/19 05:59:26;;;;;;;15.07;2.60;;;;;;;22.44;55.68;100570.13;7312452;19;130264;-40
2022/01/19 06:01:52;;;;;;;21.40;3.28;;;;;;;22.45;55.41;100570.00;7308046;19;159188;-41
2022/01/19 06:04:17;;;;;;;24.80;4.03;;;;;;;22.32;55.25;100543.13;7311597;19;128926;-40
2022/01/19 06:06:43;;;;;;;98.50;16.00;;;;;;;22.47;55.75;100556.78;7297727;19;153225;-39
2022/01/19 06:09:21;;;;;;;14.43;2.33;;;;;;;22.41;55.69;100550.22;7294634;19;157924;-40
2022/01/19 06:11:46;;;;;;;14.27;2.20;;;;;;;22.34;55.42;100541.22;7310167;19;131247;-41
2022/01/19 06:14:11;;;;;;;23.50;4.15;;;;;;;22.44;55.28;100552.63;7309623;19;129557;-41
2022/01/19 06:16:37;;;;;;;12.00;2.65;;;;;;;22.40;55.30;100543.34;7309349;19;154682;-41
2022/01/19 06:19:02;;;;;;;16.80;2.70;;;;;;;22.37;55.24;100540.13;7312563;19;130114;-39
2022/01/19 06:21:27;;;;;;;18.52;2.50;;;;;;;22.40;55.63;100534.63;7302645;19;159248;-41
2022/01/19 06:23:53;;;;;;;13.90;2.17;;;;;;;22.34;55.47;100520.25;7308896;19;129188;-42
2022/01/19 06:26:18;;;;;;;16.10;2.90;;;;;;;22.42;55.53;100537.97;7305467;19;154750;-38
2022/01/19 06:28:43;;;;;;;13.18;2.28;;;;;;;22.42;55.50;100532.72;7294851;19;159226;-41
2022/01/19 06:31:09;;;;;;;17.17;2.80;;;;;;;22.48;54.81;100524.38;7301051;19;158047;-42
2022/01/19 06:33:34;;;;;;;27.38;3.75;;;;;;;22.51;55.40;100526.78;7307659;19;153851;-37
2022/01/19 06:35:59;;;;;;;11.85;2.13;;;;;;;22.54;54.97;100526.53;7311521;19;130267;-42
2022/01/19 06:38:24;;;;;;;20.67;3.03;;;;;;;22.61;54.69;100522.50;7309403;19;137179;-39
2022/01/19 06:40:50;;;;;;;71.90;13.07;;;;;;;22.66;54.65;100509.84;7299701;19;159380;-39
2022/01/19 06:43:15;;;;;;;22.08;3.33;;;;;;;22.70;54.64;100514.69;7304065;19;143690;-36
2022/01/19 06:45:40;;;;;;;20.08;3.15;;;;;;;22.82;53.73;100510.25;7305103;19;129730;-41
2022/01/19 06:48:05;;;;;;;17.73;2.58;;;;;;;22.84;54.32;100505.72;7314793;19;155446;-36
2022/01/19 06:50:31;;;;;;;34.72;4.57;;;;;;;22.83;54.37;100490.94;7299815;19;158615;-40
2022/01/19 06:52:57;;;;;;;11.13;1.73;;;;;;;22.84;54.27;100484.75;7314780;19;129098;-37
2022/01/19 06:55:22;;;;;;;12.65;2.22;;;;;;;22.88;53.93;100488.75;7315130;19;131441;-40
2022/01/19 06:57:48;;;;;;;11.73;1.73;;;;;;;22.84;54.02;100487.38;7312703;19;158499;-40
2022/01/19 07:00:15;;;;;;;80.93;12.93;;;;;;;22.80;54.49;100485.94;7308587;19;130395;-38
2022/01/19 07:02:40;;;;;;;74.43;11.27;;;;;;;22.76;54.16;100474.88;7307216;19;130190;-38
2022/01/19 07:05:06;;;;;;;25.17;3.42;;;;;;;22.83;53.97;100469.94;7314264;19;129616;-39
2022/01/19 07:07:31;;;;;;;28.73;5.10;;;;;;;22.74;54.32;100466.28;7309467;19;130218;-38
2022/01/19 07:09:56;;;;;;;12.70;2.30;;;;;;;22.75;54.47;100464.50;7304894;19;159094;-35
2022/01/19 07:12:22;;;;;;;17.60;2.65;;;;;;;22.84;54.07;100463.78;7312286;19;128993;-38
2022/01/19 07:14:48;;;;;;;16.95;2.35;;;;;;;22.85;54.20;100457.56;7310142;19;129340;-42
2022/01/19 07:17:13;;;;;;;10.52;1.85;;;;;;;22.89;53.69;100453.72;7313381;19;159949;-37
2022/01/19 07:19:38;;;;;;;13.88;2.17;;;;;;;22.92;53.78;100442.97;7310997;19;129948;-36
2022/01/19 07:22:04;;;;;;;16.67;2.65;;;;;;;22.97;54.07;100440.81;7312359;19;129268;-40
2022/01/19 07:24:29;;;;;;;15.50;2.85;;;;;;;22.93;53.77;100445.47;7312911;19;129819;-41
2022/01/19 07:26:54;;;;;;;16.30;2.57;;;;;;;23.04;53.26;100431.44;7311642;19;158826;-38
2022/01/19 07:29:19;;;;;;;95.13;15.48;;;;;;;22.94;53.29;100417.47;7304755;19;141256;-36
2022/01/19 07:31:45;;;;;;;13.13;2.05;;;;;;;23.10;53.60;100436.19;7310013;19;156030;-39
2022/01/19 07:34:10;;;;;;;28.40;4.88;;;;;;;23.04;53.38;100406.06;7298428;19;146504;-34
2022/01/19 07:36:36;;;;;;;21.37;3.07;;;;;;;23.04;53.62;100407.84;7296268;19;129894;-37
2022/01/19 07:39:03;;;;;;;12.40;2.33;;;;;;;23.11;53.58;100420.31;7311522;19;159291;-38
2022/01/19 07:41:28;;;;;;;24.70;3.67;;;;;;;23.11;53.58;100411.63;7311277;19;130937;-40
2022/01/19 07:43:53;;;;;;;16.25;2.33;;;;;;;23.00;53.76;100409.09;7307378;19;129726;-36
2022/01/19 07:46:19;;;;;;;27.75;4.22;;;;;;;22.98;53.78;100411.00;7311515;19;158307;-40
2022/01/19 07:48:44;;;;;;;12.45;2.05;;;;;;;22.94;53.50;100394.69;7313391;19;131278;-33
2022/01/19 07:51:09;;;;;;;15.57;2.38;;;;;;;22.93;53.50;100400.06;7313771;19;130164;-39
2022/01/19 07:53:35;;;;;;;13.52;2.22;;;;;;;22.90;53.76;100392.44;7313110;19;129327;-31
2022/01/19 07:56:03;;;;;;;13.10;2.20;;;;;;;22.83;54.05;100391.28;7313649;19;130344;-37
2022/01/19 07:58:28;;;;;;;21.50;3.15;;;;;;;22.89;54.06;100385.56;7313580;19;131235;-39
2022/01/19 08:00:54;;;;;;;12.63;1.92;;;;;;;22.94;53.69;100372.91;7313135;19;128789;-43
2022/01/19 08:03:19;;;;;;;12.00;1.73;;;;;;;22.95;53.83;100379.78;7312550;19;153030;-38
2022/01/19 08:05:44;;;;;;;17.63;2.35;;;;;;;22.97;53.90;100375.25;7313728;19;140674;-35
2022/01/19 08:08:10;;;;;;;11.35;1.83;;;;;;;23.03;53.24;100364.22;7314023;19;129194;-39
2022/01/19 08:10:35;;;;;;;19.02;2.85;;;;;;;23.03;54.04;100361.59;7315048;19;129622;-36
2022/01/19 08:13:03;;;;;;;11.90;2.13;;;;;;;23.06;53.77;100351.69;7312443;19;130284;-38
2022/01/19 08:15:29;;;;;;;11.48;1.88;;;;;;;23.15;53.30;100350.88;7314137;19;130206;-39
2022/01/19 08:17:55;;;;;;;9.93;1.70;;;;;;;23.07;53.58;100352.53;7313167;19;129673;-36
2022/01/19 08:20:20;;;;;;;17.83;2.15;;;;;;;23.03;53.26;100323.09;7313796;19;128954;-40
2022/01/19 08:22:46;;;;;;;13.30;2.10;;;;;;;23.16;52.84;100330.75;7310328;19;154111;-34
2022/01/19 08:25:11;;;;;;;12.82;2.10;;;;;;;23.19;52.79;100330.47;7311652;19;159269;-39
2022/01/19 08:27:36;;;;;;;17.95;3.15;;;;;;;23.12;53.31;100329.34;7311675;19;158666;-40
2022/01/19 08:30:05;;;;;;;12.90;2.30;;;;;;;23.15;53.60;100319.41;7313438;19;129415;-40
2022/01/19 08:32:31;;;;;;;15.57;2.63;;;;;;;23.09;53.04;100319.09;7312012;19;129095;-35
2022/01/19 08:34:56;;;;;;;10.95;1.92;;;;;;;23.01;53.38;100317.16;7312827;19;130368;-40
2022/01/19 08:37:21;;;;;;;11.63;1.75;;;;;;;23.02;54.04;100315.38;7311368;19;159046;-36
2022/01/19 08:39:47;;;;;;;4.85;1.38;;;;;;;22.95;54.16;100312.44;7311273;19;150231;-37
2022/01/19 08:42:12;;;;;;;14.80;2.45;;;;;;;22.92;54.26;100306.63;7310249;19;128809;-36
2022/01/19 08:44:38;;;;;;;18.25;2.97;;;;;;;22.88;53.62;100284.25;7311289;19;129930;-37
2022/01/19 08:47:05;;;;;;;18.13;2.88;;;;;;;22.97;53.62;100293.97;7312381;19;129760;-32
2022/01/19 08:49:30;;;;;;;24.38;3.50;;;;;;;23.00;53.68;100289.28;7312691;19;129393;-38
2022/01/19 08:51:57;;;;;;;10.75;1.75;;;;;;;23.01;53.92;100275.19;7311668;19;154333;-38
2022/01/19 08:54:22;;;;;;;;;;;;;;;23.01;53.41;100276.97;7313339;19;130027;-37
2022/01/19 08:56:48;;;;;;;15.87;2.57;;;;;;;23.06;53.83;100272.16;7310438;19;158861;-38
2022/01/19 08:59:13;;;;;;;21.02;3.25;;;;;;;23.10;53.63;100277.03;7311881;19;155355;-34
2022/01/19 09:01:38;;;;;;;15.00;2.35;;;;;;;23.22;52.83;100277.75;7309697;19;132089;-39
2022/01/19 09:04:03;;;;;;;12.93;2.45;;;;;;;23.19;52.99;100286.72;7309392;19;142097;-41
2022/01/19 09:06:29;;;;;;;14.23;2.00;;;;;;;23.23;52.82;100289.91;7308086;19;158445;-37
2022/01/19 09:08:54;;;;;;;14.18;2.40;;;;;;;23.18;53.60;100294.72;7312154;19;146928;-37
2022/01/19 09:11:19;;;;;;;19.67;2.78;;;;;;;23.09;53.55;100287.63;7311397;19;152961;-38
2022/01/19 09:13:45;;;;;;;7.40;1.48;;;;;;;23.14;53.63;100302.03;7310170;19;149633;-36
2022/01/19 09:16:10;;;;;;;12.83;2.83;;;;;;;23.10;53.38;100312.91;7311874;19;130138;-38
2022/01/19 09:18:35;;;;;;;18.75;3.38;;;;;;;23.03;53.35;100311.78;7311032;19;154462;-42
2022/01/19 09:21:01;;;;;;;9.52;2.08;;;;;;;22.94;54.20;100304.72;7311773;19;129036;-36
2022/01/19 09:23:26;;;;;;;14.70;2.40;;;;;;;22.97;53.85;100314.94;7308261;19;159136;-42
2022/01/19 09:25:51;;;;;;;12.75;2.33;;;;;;;22.95;53.95;100322.09;7310635;19;158704;-39
2022/01/19 09:28:16;;;;;;;13.80;2.38;;;;;;;22.86;54.14;100328.09;7311317;19;129215;-40
2022/01/19 09:30:42;;;;;;;17.48;3.03;;;;;;;22.88;54.34;100320.94;7313242;19;129247;-36
2022/01/19 09:33:11;;;;;;;15.68;2.65;;;;;;;22.93;54.08;100313.53;7310059;19;129567;-38
2022/01/19 09:38:29;;;;;;;13.98;2.53;;;;;;;22.97;54.35;100320.19;7312141;19;129492;-42
2022/01/19 09:40:56;;;;;;;15.88;2.35;;;;;;;22.91;54.11;100299.69;7310062;19;128899;-45
2022/01/19 09:43:22;;;;;;;12.50;2.25;;;;;;;23.04;54.01;100305.56;7309376;19;133921;-35
2022/01/19 09:45:54;;;;;;;12.02;1.95;;;;;;;23.10;53.83;100311.13;7310693;19;132604;-35
2022/01/19 09:48:20;;;;;;;12.30;1.95;;;;;;;23.13;53.49;100305.63;7310415;19;129053;-41
2022/01/19 09:50:45;;;;;;;10.23;1.90;;;;;;;23.16;53.85;100307.13;7311116;19;129105;-41
2022/01/19 09:53:11;;;;;;;16.38;2.78;;;;;;;23.12;53.23;100313.63;7308794;19;130163;-43
2022/01/19 09:55:41;;;;;;;19.05;3.10;;;;;;;23.01;53.76;100300.56;7309838;19;129445;-37
2022/01/19 09:58:08;;;;;;;15.88;2.67;;;;;;;23.09;53.98;100303.38;7310098;19;129282;-37
2022/01/19 10:00:34;;;;;;;21.95;3.25;;;;;;;23.06;53.82;100308.88;7309458;19;128921;-40
2022/01/19 10:03:19;;;;;;;9.27;1.85;;;;;;;22.98;53.54;100317.41;7309905;19;129726;-40
2022/01/19 10:05:56;;;;;;;15.73;2.72;;;;;;;22.90;54.24;100309.38;7310025;19;130970;-37
2022/01/19 10:08:29;;;;;;;;;;;;;;;22.87;54.30;100314.06;7311264;19;129350;-38
2022/01/19 10:11:27;;;;;;;8.43;1.70;;;;;;;22.92;54.57;100302.19;7311051;19;128823;-31
2022/01/19 10:17:01;;;;;;;8.27;1.85;;;;;;;22.86;54.16;100278.28;7310879;19;129286;-41
2022/01/19 10:19:31;;;;;;;11.60;1.80;;;;;;;22.88;53.76;100260.63;7317284;19;129044;-34
2022/01/19 10:21:57;;;;;;;7.22;1.42;;;;;;;22.98;54.30;100267.59;7315366;19;130311;-35
2022/01/19 10:24:32;;;;;;;17.43;3.13;;;;;;;23.00;53.59;100267.47;7315710;19;129368;-36
2022/01/19 10:27:32;;;;;;;12.43;2.25;;;;;;;23.04;53.75;100260.97;7316024;19;130427;-40
2022/01/19 10:30:14;;;;;;;14.18;2.17;;;;;;;23.03;53.46;100262.78;7317496;19;129163;-38
2022/01/19 10:32:48;;;;;;;17.50;2.92;;;;;;;23.05;53.80;100244.28;7315858;19;129468;-38
2022/01/19 10:35:30;;;;;;;16.02;2.47;;;;;;;23.06;54.19;100248.56;7315996;19;130659;-37
2022/01/19 10:38:16;;;;;;;9.75;1.83;;;;;;;23.04;53.75;100234.75;7317539;19;129734;-37
2022/01/19 10:41:01;;;;;;;16.30;2.60;;;;;;;22.96;54.12;100240.66;7316251;19;129359;-35
2022/01/19 10:43:46;;;;;;;11.57;1.98;;;;;;;22.88;53.66;100216.91;7316359;19;130848;-40
2022/01/19 10:46:26;;;;;;;13.35;2.35;;;;;;;22.87;54.17;100230.16;7314558;19;130278;-32
2022/01/19 10:49:07;;;;;;;18.60;2.95;;;;;;;22.86;54.43;100223.22;7315595;19;129420;-37
2022/01/19 10:51:40;;;;;;;15.98;2.85;;;;;;;22.78;54.63;100212.56;7316174;19;129386;-36
2022/01/19 10:54:17;;;;;;;14.13;2.53;;;;;;;22.78;54.71;100195.06;7314454;19;129288;-41
2022/01/19 10:56:48;;;;;;;;;;;;;;;22.76;54.92;100193.53;7316180;19;130200;-36
2022/01/19 10:59:15;;;;;;;17.67;2.75;;;;;;;22.74;54.41;100187.59;7317252;19;130383;-44
2022/01/19 11:01:46;;;;;;;15.85;2.90;;;;;;;22.81;54.49;100173.81;7313966;19;132003;-39
2022/01/19 11:04:31;;;;;;;21.83;3.83;;;;;;;22.85;54.75;100164.75;7313939;19;129835;-39
2022/01/19 11:07:08;;;;;;;12.48;2.00;;;;;;;22.79;54.74;100143.47;7314848;19;130238;-37
2022/01/19 11:09:46;;;;;;;9.85;2.00;;;;;;;22.93;54.21;100150.94;7315984;19;129125;-38
2022/01/19 11:12:16;;;;;;;19.73;3.10;;;;;;;22.91;54.50;100145.00;7314834;19;129234;-37
2022/01/19 11:14:42;;;;;;;9.82;1.85;;;;;;;22.95;53.95;100133.28;7315907;19;128967;-32
2022/01/19 11:17:09;;;;;;;16.35;2.88;;;;;;;22.89;53.66;100116.28;7316424;19;130150;-36
2022/01/19 11:19:45;;;;;;;16.73;2.75;;;;;;;23.01;53.96;100123.09;7315425;19;130155;-31
2022/01/19 11:22:31;;;;;;;16.52;2.53;;;;;;;22.95;53.70;100110.53;7314942;19;129343;-37
2022/01/19 11:25:28;;;;;;;18.10;2.70;;;;;;;22.88;54.68;100108.56;7315039;19;129040;-38
2022/01/19 11:27:54;;;;;;;13.45;2.35;;;;;;;22.89;54.67;100110.25;7314620;19;129302;-33
2022/01/19 11:30:23;;;;;;;13.63;2.23;;;;;;;22.85;54.05;100106.22;7314016;19;129396;-34
2022/01/19 11:33:17;;;;;;;15.38;2.22;;;;;;;22.82;54.90;100106.50;7314679;19;129085;-37
2022/01/19 11:35:47;;;;;;;14.60;2.47;;;;;;;22.79;54.93;100101.53;7315586;19;129244;-36
2022/01/19 11:38:44;;;;;;;12.23;2.25;;;;;;;22.74;55.07;100093.25;7315231;19;130290;-41
2022/01/19 11:41:09;;;;;;;14.13;2.47;;;;;;;22.75;54.92;100079.16;7313441;19;129394;-34
2022/01/19 11:43:37;;;;;;;20.57;3.27;;;;;;;22.73;54.83;100073.22;7312060;19;156097;-39
2022/01/19 11:46:05;;;;;;;19.73;3.35;;;;;;;22.71;55.05;100073.34;7312940;19;129821;-37
2022/01/19 11:48:35;;;;;;;12.70;2.13;;;;;;;22.81;54.51;100070.75;7315399;19;129145;-34
2022/01/19 11:51:24;;;;;;;12.55;2.30;;;;;;;22.86;54.83;100055.44;7314536;19;129336;-35
2022/01/19 11:54:17;;;;;;;13.60;2.45;;;;;;;22.85;54.84;100053.78;7311703;19;129296;-44
2022/01/19 11:56:57;;;;;;;18.08;2.97;;;;;;;22.85;54.60;100022.31;7313786;19;129706;-33
2022/01/19 11:59:25;;;;;;;11.98;1.90;;;;;;;22.95;53.86;100033.66;7313394;19;159912;-35
2022/01/19 12:01:50;;;;;;;13.95;2.25;;;;;;;22.99;54.33;100021.94;7311711;19;131000;-36
2022/01/19 12:04:18;;;;;;;24.17;4.18;;;;;;;22.93;54.51;100020.69;7311653;19;129209;-37
2022/01/19 12:06:44;;;;;;;16.75;2.85;;;;;;;22.88;54.14;100012.41;7313871;19;128827;-38
2022/01/19 12:09:12;;;;;;;14.23;2.33;;;;;;;22.89;54.18;100008.00;7314252;19;130199;-40
2022/01/19 12:11:42;;;;;;;18.73;2.97;;;;;;;22.85;53.98;100007.44;7313206;19;129357;-44
2022/01/19 12:14:18;;;;;;;17.58;3.35;;;;;;;22.79;55.01;99996.66;7310659;19;129764;-37
2022/01/19 12:17:01;;;;;;;16.15;3.08;;;;;;;22.73;54.58;99986.72;7313778;19;128884;-40
2022/01/19 12:19:29;;;;;;;6.28;1.50;;;;;;;22.68;55.13;99981.06;7314053;19;129527;-39
2022/01/19 12:22:05;;;;;;;8.75;1.88;;;;;;;22.66;55.10;99964.66;7312978;19;129632;-34
2022/01/19 12:24:37;;;;;;;27.23;3.90;;;;;;;22.65;54.71;99958.59;7311858;19;129616;-39
2022/01/19 12:27:13;;;;;;;15.23;2.67;;;;;;;22.63;55.22;99943.94;7314505;19;129365;-38
2022/01/19 12:29:45;;;;;;;13.98;2.47;;;;;;;22.65;54.85;99942.03;7312854;19;130310;-40
2022/01/19 12:32:10;;;;;;;16.35;2.55;;;;;;;22.71;54.67;99925.75;7313892;19;130496;-41
2022/01/19 12:34:43;;;;;;;15.70;2.97;;;;;;;22.77;54.71;99917.34;7310934;19;154475;-39
2022/01/19 12:37:10;;;;;;;11.30;2.25;;;;;;;22.72;54.81;99898.56;7313224;19;129196;-42
2022/01/19 12:39:36;;;;;;;;;;;;;;;22.76;54.95;99892.91;7313257;19;129462;-36
2022/01/19 12:42:13;;;;;;;6.00;1.40;;;;;;;22.85;54.96;99889.47;7310336;19;129274;-36